Time,TemperatureF,DewpointF,PressureIn,WindDirection,WindDirectionDegrees,WindSpeedMPH,WindSpeedGustMPH,Humidity,HourlyPrecipIn,Conditions,Clouds,dailyrainin,SoftwareType,DateUTC
2013-04-29 00:02:00,57.0,46.0,29.94,East,82,0.0,0.0,67,0.00,,,0.00,,2013-04-29 05:02:00,
2013-04-29 00:12:00,57.0,46.0,29.94,East,82,0.0,0.0,67,0.00,,,0.00,,2013-04-29 05:12:00,
2013-04-29 00:22:00,56.0,46.0,29.96,ENE,78,0.0,0.0,69,0.00,,,0.00,,2013-04-29 05:22:00,
2013-04-29 00:32:00,56.0,46.0,29.96,ENE,78,0.0,0.0,69,0.00,,,0.00,,2013-04-29 05:32:00,
2013-04-29 00:42:00,56.0,46.0,29.96,ENE,78,0.0,0.0,69,0.00,,,0.00,,2013-04-29 05:42:00,
2013-04-29 00:52:00,55.0,47.0,29.96,ENE,76,0.0,0.0,73,0.00,,,0.00,,2013-04-29 05:52:00,
2013-04-29 01:02:00,55.0,47.0,29.96,ENE,76,0.0,0.0,73,0.00,,,0.00,,2013-04-29 06:02:00,
2013-04-29 01:11:00,55.0,47.0,29.96,ENE,76,0.0,0.0,73,0.00,,,0.00,,2013-04-29 06:11:00,
2013-04-29 01:21:00,54.0,46.0,29.96,ESE,117,0.0,0.0,74,0.00,,,0.00,,2013-04-29 06:21:00,
2013-04-29 01:32:00,54.0,46.0,29.96,ESE,117,0.0,0.0,74,0.00,,,0.00,,2013-04-29 06:32:00,
2013-04-29 01:42:00,54.0,46.0,29.96,ESE,117,0.0,0.0,74,0.00,,,0.00,,2013-04-29 06:42:00,
2013-04-29 01:52:00,53.0,46.0,29.96,ENE,75,0.0,0.0,77,0.00,,,0.00,,2013-04-29 06:52:00,
2013-04-29 02:01:00,53.0,46.0,29.96,ENE,75,0.0,0.0,77,0.00,,,0.00,,2013-04-29 07:01:00,
2013-04-29 02:11:00,53.0,46.0,29.96,ENE,75,0.0,0.0,77,0.00,,,0.00,,2013-04-29 07:11:00,
2013-04-29 02:21:00,51.0,45.0,29.94,NNW,336,0.0,0.0,81,0.00,,,0.00,,2013-04-29 07:21:00,
2013-04-29 02:32:00,51.0,45.0,29.94,NNW,336,0.0,0.0,81,0.00,,,0.00,,2013-04-29 07:32:00,
2013-04-29 02:42:00,51.0,45.0,29.94,NNW,336,0.0,0.0,81,0.00,,,0.00,,2013-04-29 07:42:00,
2013-04-29 02:52:00,51.0,45.0,29.95,NNW,336,0.0,0.0,81,0.00,,,0.00,,2013-04-29 07:52:00,
2013-04-29 03:02:00,51.0,45.0,29.95,NNW,336,0.0,0.0,81,0.00,,,0.00,,2013-04-29 08:02:00,
2013-04-29 03:11:00,51.0,45.0,29.95,NNW,336,0.0,0.0,81,0.00,,,0.00,,2013-04-29 08:11:00,
2013-04-29 03:21:00,50.0,45.0,29.95,NNW,339,0.0,0.0,82,0.00,,,0.00,,2013-04-29 08:21:00,
2013-04-29 03:31:00,50.0,45.0,29.95,NNW,339,0.0,0.0,82,0.00,,,0.00,,2013-04-29 08:31:00,
2013-04-29 03:42:00,50.0,45.0,29.95,NNW,339,0.0,0.0,82,0.00,,,0.00,,2013-04-29 08:42:00,
2013-04-29 03:52:00,49.0,44.0,29.93,NNW,339,0.0,0.0,83,0.00,,,0.00,,2013-04-29 08:52:00,
2013-04-29 04:01:00,49.0,44.0,29.93,NNW,339,0.0,0.0,83,0.00,,,0.00,,2013-04-29 09:01:00,
2013-04-29 04:12:00,49.0,44.0,29.93,NNW,339,0.0,0.0,83,0.00,,,0.00,,2013-04-29 09:12:00,
2013-04-29 04:21:00,49.0,43.0,29.93,NNW,339,0.0,0.0,81,0.00,,,0.00,,2013-04-29 09:21:00,
2013-04-29 04:32:00,49.0,43.0,29.93,NNW,339,0.0,0.0,81,0.00,,,0.00,,2013-04-29 09:32:00,
2013-04-29 04:42:00,49.0,43.0,29.93,NNW,339,0.0,0.0,81,0.00,,,0.00,,2013-04-29 09:42:00,
2013-04-29 04:53:00,50.0,44.0,29.93,NNW,336,0.0,0.0,79,0.00,,,0.00,,2013-04-29 09:53:00,
2013-04-29 05:02:00,50.0,44.0,29.93,NNW,336,0.0,0.0,79,0.00,,,0.00,,2013-04-29 10:02:00,
2013-04-29 05:12:00,50.0,44.0,29.93,NNW,336,0.0,0.0,79,0.00,,,0.00,,2013-04-29 10:12:00,
2013-04-29 05:23:00,49.0,43.0,29.93,WSW,241,0.0,0.0,79,0.00,,,0.00,,2013-04-29 10:23:00,
2013-04-29 05:32:00,49.0,43.0,29.93,WSW,241,0.0,0.0,79,0.00,,,0.00,,2013-04-29 10:32:00,
2013-04-29 05:42:00,49.0,43.0,29.93,WSW,241,0.0,0.0,79,0.00,,,0.00,,2013-04-29 10:42:00,
2013-04-29 05:52:00,51.0,45.0,29.91,West,260,0.0,8.0,79,0.00,,,0.00,,2013-04-29 10:52:00,
2013-04-29 06:02:00,51.0,45.0,29.91,West,260,0.0,8.0,79,0.00,,,0.00,,2013-04-29 11:02:00,
2013-04-29 06:12:00,51.0,45.0,29.91,West,260,0.0,8.0,79,0.00,,,0.00,,2013-04-29 11:12:00,
2013-04-29 06:21:00,51.0,44.0,29.91,West,267,0.0,6.0,78,0.00,,,0.00,,2013-04-29 11:21:00,
2013-04-29 06:32:00,51.0,44.0,29.91,West,267,0.0,6.0,78,0.00,,,0.00,,2013-04-29 11:32:00,
2013-04-29 06:42:00,51.0,44.0,29.91,West,267,0.0,6.0,78,0.00,,,0.00,,2013-04-29 11:42:00,
2013-04-29 06:52:00,50.0,44.0,29.92,NW,308,0.0,3.0,79,0.00,,,0.00,,2013-04-29 11:52:00,
2013-04-29 07:01:00,50.0,44.0,29.92,NW,308,0.0,3.0,79,0.00,,,0.00,,2013-04-29 12:01:00,
2013-04-29 07:12:00,50.0,44.0,29.92,NW,308,0.0,3.0,79,0.00,,,0.00,,2013-04-29 12:12:00,
2013-04-29 07:22:00,49.0,44.0,29.93,WNW,296,0.0,2.0,82,0.00,,,0.00,,2013-04-29 12:22:00,
2013-04-29 07:31:00,49.0,44.0,29.93,WNW,296,0.0,2.0,82,0.00,,,0.00,,2013-04-29 12:31:00,
2013-04-29 07:42:00,49.0,44.0,29.93,WNW,296,0.0,2.0,82,0.00,,,0.00,,2013-04-29 12:42:00,
2013-04-29 07:52:00,48.0,43.0,29.92,West,277,0.0,0.0,83,0.00,,,0.00,,2013-04-29 12:52:00,
2013-04-29 08:01:00,48.0,43.0,29.92,West,277,0.0,0.0,83,0.00,,,0.00,,2013-04-29 13:01:00,
2013-04-29 08:11:00,48.0,43.0,29.92,West,277,0.0,0.0,83,0.00,,,0.00,,2013-04-29 13:11:00,
2013-04-29 08:21:00,49.0,45.0,29.93,West,277,0.0,0.0,85,0.00,,,0.00,,2013-04-29 13:21:00,
2013-04-29 08:31:00,49.0,45.0,29.93,West,277,0.0,0.0,85,0.00,,,0.00,,2013-04-29 13:31:00,
2013-04-29 08:42:00,49.0,45.0,29.93,West,277,0.0,0.0,85,0.00,,,0.00,,2013-04-29 13:42:00,
2013-04-29 08:52:00,51.0,45.0,29.94,WNW,296,0.0,0.0,81,0.00,,,0.00,,2013-04-29 13:52:00,
2013-04-29 09:01:00,51.0,45.0,29.94,WNW,296,0.0,0.0,81,0.00,,,0.00,,2013-04-29 14:01:00,
2013-04-29 09:11:00,51.0,45.0,29.94,WNW,296,0.0,0.0,81,0.00,,,0.00,,2013-04-29 14:11:00,
2013-04-29 09:21:00,55.0,46.0,29.93,West,268,0.0,6.0,72,0.00,,,0.00,,2013-04-29 14:21:00,
2013-04-29 09:32:00,55.0,46.0,29.93,West,268,0.0,6.0,72,0.00,,,0.00,,2013-04-29 14:32:00,
2013-04-29 09:42:00,55.0,46.0,29.93,West,268,0.0,6.0,72,0.00,,,0.00,,2013-04-29 14:42:00,
2013-04-29 09:52:00,59.0,46.0,29.93,SSW,192,2.0,7.0,61,0.00,,,0.00,,2013-04-29 14:52:00,
2013-04-29 10:01:00,59.0,46.0,29.93,SSW,192,2.0,7.0,61,0.00,,,0.00,,2013-04-29 15:01:00,
2013-04-29 10:12:00,59.0,46.0,29.93,SSW,192,2.0,7.0,61,0.00,,,0.00,,2013-04-29 15:12:00,
2013-04-29 10:21:00,62.0,45.0,29.93,SW,219,0.0,7.0,54,0.00,,,0.00,,2013-04-29 15:21:00,
2013-04-29 10:33:00,62.0,45.0,29.93,SW,219,0.0,7.0,54,0.00,,,0.00,,2013-04-29 15:33:00,
2013-04-29 10:43:00,62.0,45.0,29.93,SW,219,0.0,7.0,54,0.00,,,0.00,,2013-04-29 15:43:00,
2013-04-29 10:53:00,66.0,43.0,29.92,South,186,0.0,10.0,44,0.00,,,0.00,,2013-04-29 15:53:00,
2013-04-29 11:02:00,66.0,43.0,29.92,South,186,0.0,10.0,44,0.00,,,0.00,,2013-04-29 16:02:00,
2013-04-29 11:12:00,66.0,43.0,29.92,South,186,0.0,10.0,44,0.00,,,0.00,,2013-04-29 16:12:00,
2013-04-29 11:23:00,70.0,42.0,29.92,South,176,0.0,10.0,36,0.00,,,0.00,,2013-04-29 16:23:00,
2013-04-29 11:33:00,70.0,42.0,29.92,South,176,0.0,10.0,36,0.00,,,0.00,,2013-04-29 16:33:00,
2013-04-29 11:42:00,70.0,42.0,29.92,South,176,0.0,10.0,36,0.00,,,0.00,,2013-04-29 16:42:00,
2013-04-29 11:52:00,74.0,40.0,29.91,South,185,0.0,12.0,29,0.00,,,0.00,,2013-04-29 16:52:00,
2013-04-29 12:02:00,74.0,40.0,29.91,South,185,0.0,12.0,29,0.00,,,0.00,,2013-04-29 17:02:00,
2013-04-29 12:12:00,74.0,40.0,29.91,South,185,0.0,12.0,29,0.00,,,0.00,,2013-04-29 17:12:00,
2013-04-29 12:22:00,76.0,37.0,29.89,SSE,160,0.0,7.0,24,0.00,,,0.00,,2013-04-29 17:22:00,
2013-04-29 12:32:00,76.0,37.0,29.89,SSE,160,0.0,7.0,24,0.00,,,0.00,,2013-04-29 17:32:00,
2013-04-29 12:42:00,76.0,37.0,29.89,SSE,160,0.0,7.0,24,0.00,,,0.00,,2013-04-29 17:42:00,
2013-04-29 12:52:00,78.0,36.0,29.89,WNW,285,1.0,12.0,22,0.00,,,0.00,,2013-04-29 17:52:00,
2013-04-29 13:01:00,78.0,36.0,29.89,WNW,285,1.0,12.0,22,0.00,,,0.00,,2013-04-29 18:01:00,
2013-04-29 13:13:00,78.0,36.0,29.89,WNW,285,1.0,12.0,22,0.00,,,0.00,,2013-04-29 18:13:00,
2013-04-29 13:22:00,80.0,35.0,29.89,WNW,292,0.0,6.0,20,0.00,,,0.00,,2013-04-29 18:22:00,
2013-04-29 13:32:00,80.0,35.0,29.89,WNW,292,0.0,6.0,20,0.00,,,0.00,,2013-04-29 18:32:00,
2013-04-29 13:42:00,80.0,35.0,29.89,WNW,292,0.0,6.0,20,0.00,,,0.00,,2013-04-29 18:42:00,
2013-04-29 13:52:00,81.0,36.0,29.86,South,169,0.0,7.0,20,0.00,,,0.00,,2013-04-29 18:52:00,
2013-04-29 14:01:00,81.0,36.0,29.86,South,169,0.0,7.0,20,0.00,,,0.00,,2013-04-29 19:01:00,
2013-04-29 14:11:00,81.0,36.0,29.86,South,169,0.0,7.0,20,0.00,,,0.00,,2013-04-29 19:11:00,
2013-04-29 14:21:00,81.0,35.0,29.85,NW,322,4.0,13.0,19,0.00,,,0.00,,2013-04-29 19:21:00,
2013-04-29 14:31:00,81.0,35.0,29.85,NW,322,4.0,13.0,19,0.00,,,0.00,,2013-04-29 19:31:00,
2013-04-29 14:42:00,81.0,35.0,29.85,NW,322,4.0,13.0,19,0.00,,,0.00,,2013-04-29 19:42:00,
2013-04-29 14:52:00,78.0,34.0,29.83,East,97,2.0,8.0,20,0.00,,,0.00,,2013-04-29 19:52:00,
2013-04-29 15:02:00,78.0,34.0,29.83,East,97,2.0,8.0,20,0.00,,,0.00,,2013-04-29 20:02:00,
2013-04-29 15:11:00,78.0,34.0,29.83,East,97,2.0,8.0,20,0.00,,,0.00,,2013-04-29 20:11:00,
2013-04-29 15:21:00,78.0,36.0,29.85,SE,144,0.0,0.0,22,0.00,,,0.00,,2013-04-29 20:21:00,
2013-04-29 15:30:00,79.0,34.0,29.81,ESE,103,0.0,10.0,20,0.00,,,0.00,,2013-04-29 20:30:00,
2013-04-29 15:32:00,78.0,36.0,29.85,SE,144,0.0,0.0,22,0.00,,,0.00,,2013-04-29 20:32:00,
2013-04-29 15:42:00,78.0,36.0,29.85,SE,144,0.0,0.0,22,0.00,,,0.00,,2013-04-29 20:42:00,
2013-04-29 15:52:00,79.0,34.0,29.81,ESE,103,0.0,10.0,20,0.00,,,0.00,,2013-04-29 20:52:00,
2013-04-29 16:01:00,79.0,34.0,29.81,ESE,103,0.0,10.0,20,0.00,,,0.00,,2013-04-29 21:01:00,
2013-04-29 16:11:00,79.0,34.0,29.81,ESE,103,0.0,10.0,20,0.00,,,0.00,,2013-04-29 21:11:00,
2013-04-29 16:21:00,79.0,34.0,29.81,ESE,103,0.0,10.0,20,0.00,,,0.00,,2013-04-29 21:21:00,
2013-04-29 16:53:00,80.0,34.0,29.79,SE,126,3.0,10.0,19,0.00,,,0.00,,2013-04-29 21:53:00,
2013-04-29 17:02:00,80.0,34.0,29.79,SE,126,3.0,10.0,19,0.00,,,0.00,,2013-04-29 22:02:00,
2013-04-29 17:13:00,80.0,34.0,29.79,SE,126,3.0,10.0,19,0.00,,,0.00,,2013-04-29 22:13:00,
2013-04-29 17:23:00,82.0,33.0,29.79,ENE,62,2.0,8.0,17,0.00,,,0.00,,2013-04-29 22:23:00,
2013-04-29 17:32:00,82.0,33.0,29.79,ENE,62,2.0,8.0,17,0.00,,,0.00,,2013-04-29 22:32:00,
2013-04-29 17:42:00,82.0,33.0,29.79,ENE,62,2.0,8.0,17,0.00,,,0.00,,2013-04-29 22:42:00,
2013-04-29 17:52:00,81.0,33.0,29.78,SE,140,0.0,0.0,18,0.00,,,0.00,,2013-04-29 22:52:00,
2013-04-29 18:02:00,81.0,33.0,29.78,SE,140,0.0,0.0,18,0.00,,,0.00,,2013-04-29 23:02:00,
2013-04-29 18:11:00,81.0,33.0,29.78,SE,140,0.0,0.0,18,0.00,,,0.00,,2013-04-29 23:11:00,
2013-04-29 18:22:00,81.0,32.0,29.77,East,85,0.0,6.0,17,0.00,,,0.00,,2013-04-29 23:22:00,
2013-04-29 18:32:00,81.0,32.0,29.77,East,85,0.0,6.0,17,0.00,,,0.00,,2013-04-29 23:32:00,
2013-04-29 18:42:00,81.0,32.0,29.77,East,85,0.0,6.0,17,0.00,,,0.00,,2013-04-29 23:42:00,
2013-04-29 18:52:00,78.0,31.0,29.78,NW,304,1.0,18.0,18,0.00,,,0.00,,2013-04-29 23:52:00,
2013-04-29 19:01:00,78.0,31.0,29.78,NW,304,1.0,18.0,18,0.00,,,0.00,,2013-04-30 00:01:00,
2013-04-29 19:11:00,78.0,31.0,29.78,NW,304,1.0,18.0,18,0.00,,,0.00,,2013-04-30 00:11:00,
2013-04-29 19:21:00,77.0,32.0,29.77,NNW,343,0.0,0.0,19,0.00,,,0.00,,2013-04-30 00:21:00,
2013-04-29 19:32:00,77.0,32.0,29.77,NNW,343,0.0,0.0,19,0.00,,,0.00,,2013-04-30 00:32:00,
2013-04-29 19:42:00,77.0,32.0,29.77,NNW,343,0.0,0.0,19,0.00,,,0.00,,2013-04-30 00:42:00,
2013-04-29 19:52:00,76.0,38.0,29.78,South,172,0.0,6.0,25,0.00,,,0.00,,2013-04-30 00:52:00,
2013-04-29 20:01:00,76.0,38.0,29.78,South,172,0.0,6.0,25,0.00,,,0.00,,2013-04-30 01:01:00,
2013-04-29 20:11:00,76.0,38.0,29.78,South,172,0.0,6.0,25,0.00,,,0.00,,2013-04-30 01:11:00,
2013-04-29 20:21:00,74.0,36.0,29.76,South,188,0.0,0.0,25,0.00,,,0.00,,2013-04-30 01:21:00,
2013-04-29 20:32:00,74.0,36.0,29.76,South,188,0.0,0.0,25,0.00,,,0.00,,2013-04-30 01:32:00,
2013-04-29 20:42:00,74.0,36.0,29.76,South,188,0.0,0.0,25,0.00,,,0.00,,2013-04-30 01:42:00,
2013-04-29 20:52:00,73.0,32.0,29.75,WNW,288,0.0,6.0,22,0.00,,,0.00,,2013-04-30 01:52:00,
2013-04-29 21:01:00,73.0,32.0,29.75,WNW,288,0.0,6.0,22,0.00,,,0.00,,2013-04-30 02:01:00,
2013-04-29 21:11:00,73.0,32.0,29.75,WNW,288,0.0,6.0,22,0.00,,,0.00,,2013-04-30 02:11:00,
2013-04-29 21:21:00,72.0,30.0,29.77,WSW,250,0.0,5.0,21,0.00,,,0.00,,2013-04-30 02:21:00,
2013-04-29 21:31:00,72.0,30.0,29.77,WSW,250,0.0,5.0,21,0.00,,,0.00,,2013-04-30 02:31:00,
2013-04-29 21:42:00,72.0,30.0,29.77,WSW,250,0.0,5.0,21,0.00,,,0.00,,2013-04-30 02:42:00,
2013-04-29 21:51:00,71.0,32.0,29.78,SSE,168,0.0,0.0,24,0.00,,,0.00,,2013-04-30 02:51:00,
2013-04-29 22:01:00,71.0,32.0,29.78,SSE,168,0.0,0.0,24,0.00,,,0.00,,2013-04-30 03:01:00,
2013-04-29 22:11:00,69.0,34.0,29.80,SW,234,0.0,0.0,27,0.00,,,0.00,,2013-04-30 03:11:00,
2013-04-29 22:21:00,69.0,34.0,29.80,SW,234,0.0,0.0,27,0.00,,,0.00,,2013-04-30 03:21:00,
2013-04-29 22:33:00,69.0,34.0,29.80,SW,234,0.0,0.0,27,0.00,,,0.00,,2013-04-30 03:33:00,
2013-04-29 22:43:00,69.0,34.0,29.80,SW,234,0.0,0.0,27,0.00,,,0.00,,2013-04-30 03:43:00,
2013-04-29 22:52:00,67.0,36.0,29.80,SW,224,0.0,0.0,32,0.00,,,0.00,,2013-04-30 03:52:00,
2013-04-29 23:02:00,67.0,36.0,29.80,SW,224,0.0,0.0,32,0.00,,,0.00,,2013-04-30 04:02:00,
2013-04-29 23:12:00,67.0,36.0,29.80,SW,224,0.0,0.0,32,0.00,,,0.00,,2013-04-30 04:12:00,
2013-04-29 23:22:00,66.0,38.0,29.81,SW,223,0.0,0.0,35,0.00,,,0.00,,2013-04-30 04:22:00,
2013-04-29 23:32:00,66.0,38.0,29.81,SW,223,0.0,0.0,35,0.00,,,0.00,,2013-04-30 04:32:00,
2013-04-29 23:42:00,66.0,38.0,29.81,SW,223,0.0,0.0,35,0.00,,,0.00,,2013-04-30 04:42:00,
2013-04-29 23:52:00,66.0,37.0,29.80,SW,215,0.0,0.0,34,0.00,,,0.00,,2013-04-30 04:52:00,